sensor_id;sensor_type;location;lat;lon;timestamp;P1;durP1;ratioP1;P2;durP2;ratioP2
34521;SDS011;25561;48.888;8.736;2022-08-11T05:33:34;4.30;;;2.20;;
34521;SDS011;25561;48.888;8.736;2022-08-11T05:37:09;4.40;;;2.40;;
34521;SDS011;25561;48.888;8.736;2022-08-11T05:40:27;9.20;;;2.63;;
34521;SDS011;25561;48.888;8.736;2022-08-11T05:44:00;7.45;;;3.10;;
34521;SDS011;25561;48.888;8.736;2022-08-11T05:47:24;4.80;;;2.20;;
34521;SDS011;25561;48.888;8.736;2022-08-11T05:50:51;9.10;;;3.20;;
34521;SDS011;25561;48.888;8.736;2022-08-11T05:54:16;7.88;;;3.63;;
34521;SDS011;25561;48.888;8.736;2022-08-11T05:57:38;11.13;;;2.95;;
34521;SDS011;25561;48.888;8.736;2022-08-11T06:00:51;9.15;;;3.40;;
34521;SDS011;25561;48.888;8.736;2022-08-11T06:03:55;4.20;;;2.65;;
34521;SDS011;25561;48.888;8.736;2022-08-11T06:07:25;6.93;;;2.67;;
34521;SDS011;25561;48.888;8.736;2022-08-11T06:10:31;5.05;;;2.90;;
34521;SDS011;25561;48.888;8.736;2022-08-11T06:49:33;7.22;;;2.88;;
34521;SDS011;25561;48.888;8.736;2022-08-11T06:52:58;7.85;;;2.63;;
34521;SDS011;25561;48.888;8.736;2022-08-11T06:56:00;5.03;;;2.55;;
34521;SDS011;25561;48.888;8.736;2022-08-11T06:59:22;9.98;;;2.80;;
34521;SDS011;25561;48.888;8.736;2022-08-11T07:02:50;8.43;;;3.42;;
34521;SDS011;25561;48.888;8.736;2022-08-11T07:05:57;6.13;;;2.83;;
34521;SDS011;25561;48.888;8.736;2022-08-11T07:09:08;5.85;;;2.90;;
34521;SDS011;25561;48.888;8.736;2022-08-11T07:12:42;5.68;;;2.80;;
34521;SDS011;25561;48.888;8.736;2022-08-11T07:16:08;9.48;;;3.28;;
34521;SDS011;25561;48.888;8.736;2022-08-11T07:19:16;6.13;;;2.72;;
34521;SDS011;25561;48.888;8.736;2022-08-11T07:22:48;11.32;;;2.65;;
34521;SDS011;25561;48.888;8.736;2022-08-11T07:26:18;5.55;;;2.70;;
34521;SDS011;25561;48.888;8.736;2022-08-11T07:29:45;3.90;;;2.58;;
34521;SDS011;25561;48.888;8.736;2022-08-11T07:32:50;5.97;;;2.50;;
34521;SDS011;25561;48.888;8.736;2022-08-11T07:35:55;10.85;;;2.88;;
34521;SDS011;25561;48.888;8.736;2022-08-11T07:38:58;6.03;;;3.15;;
34521;SDS011;25561;48.888;8.736;2022-08-11T07:42:05;5.10;;;2.63;;
34521;SDS011;25561;48.888;8.736;2022-08-11T07:45:09;4.65;;;3.20;;
34521;SDS011;25561;48.888;8.736;2022-08-11T07:48:31;4.03;;;2.50;;
34521;SDS011;25561;48.888;8.736;2022-08-11T07:51:54;6.15;;;3.03;;
34521;SDS011;25561;48.888;8.736;2022-08-11T07:55:16;4.10;;;2.53;;
34521;SDS011;25561;48.888;8.736;2022-08-11T07:58:40;5.38;;;3.05;;
34521;SDS011;25561;48.888;8.736;2022-08-11T08:02:08;6.22;;;2.80;;
34521;SDS011;25561;48.888;8.736;2022-08-11T08:05:32;9.32;;;2.83;;
34521;SDS011;25561;48.888;8.736;2022-08-11T08:08:54;6.53;;;3.25;;
34521;SDS011;25561;48.888;8.736;2022-08-11T08:12:19;7.18;;;2.80;;
34521;SDS011;25561;48.888;8.736;2022-08-11T08:15:43;6.22;;;3.35;;
34521;SDS011;25561;48.888;8.736;2022-08-11T08:19:05;6.90;;;3.42;;
34521;SDS011;25561;48.888;8.736;2022-08-11T08:22:07;4.65;;;2.42;;
34521;SDS011;25561;48.888;8.736;2022-08-11T08:25:32;6.07;;;2.72;;
34521;SDS011;25561;48.888;8.736;2022-08-11T08:28:35;4.85;;;2.50;;
34521;SDS011;25561;48.888;8.736;2022-08-11T08:31:37;6.05;;;3.30;;
34521;SDS011;25561;48.888;8.736;2022-08-11T08:34:39;9.90;;;3.08;;
34521;SDS011;25561;48.888;8.736;2022-08-11T08:37:41;5.65;;;2.83;;
34521;SDS011;25561;48.888;8.736;2022-08-11T08:40:49;7.65;;;3.35;;
34521;SDS011;25561;48.888;8.736;2022-08-11T08:43:58;5.85;;;2.47;;
34521;SDS011;25561;48.888;8.736;2022-08-11T08:47:24;9.95;;;3.33;;
34521;SDS011;25561;48.888;8.736;2022-08-11T08:50:44;7.65;;;3.08;;
34521;SDS011;25561;48.888;8.736;2022-08-11T08:54:16;8.95;;;3.42;;
34521;SDS011;25561;48.888;8.736;2022-08-11T08:57:22;8.75;;;3.17;;
34521;SDS011;25561;48.888;8.736;2022-08-11T09:00:24;7.38;;;3.05;;
34521;SDS011;25561;48.888;8.736;2022-08-11T09:03:38;6.97;;;3.20;;
34521;SDS011;25561;48.888;8.736;2022-08-11T09:07:05;5.82;;;2.80;;
34521;SDS011;25561;48.888;8.736;2022-08-11T09:10:12;7.53;;;3.33;;
34521;SDS011;25561;48.888;8.736;2022-08-11T09:13:17;7.90;;;2.83;;
34521;SDS011;25561;48.888;8.736;2022-08-11T09:16:19;4.95;;;2.90;;
34521;SDS011;25561;48.888;8.736;2022-08-11T09:19:23;7.05;;;2.92;;
34521;SDS011;25561;48.888;8.736;2022-08-11T09:22:27;14.75;;;3.95;;
34521;SDS011;25561;48.888;8.736;2022-08-11T09:26:11;8.55;;;2.53;;
34521;SDS011;25561;48.888;8.736;2022-08-11T09:29:33;11.05;;;3.00;;
34521;SDS011;25561;48.888;8.736;2022-08-11T09:35:40;7.07;;;2.90;;
34521;SDS011;25561;48.888;8.736;2022-08-11T09:38:46;6.45;;;2.80;;
34521;SDS011;25561;48.888;8.736;2022-08-11T09:42:10;6.50;;;2.63;;
34521;SDS011;25561;48.888;8.736;2022-08-11T09:45:16;6.18;;;2.78;;
34521;SDS011;25561;48.888;8.736;2022-08-11T09:48:19;13.20;;;3.28;;
34521;SDS011;25561;48.888;8.736;2022-08-11T09:51:23;3.47;;;2.50;;
34521;SDS011;25561;48.888;8.736;2022-08-11T09:54:30;5.22;;;2.47;;
34521;SDS011;25561;48.888;8.736;2022-08-11T09:57:32;8.10;;;2.45;;
34521;SDS011;25561;48.888;8.736;2022-08-11T10:00:55;10.30;;;3.03;;
34521;SDS011;25561;48.888;8.736;2022-08-11T10:04:03;5.05;;;1.90;;
34521;SDS011;25561;48.888;8.736;2022-08-11T10:07:11;3.53;;;2.33;;
34521;SDS011;25561;48.888;8.736;2022-08-11T10:10:16;5.57;;;2.03;;
34521;SDS011;25561;48.888;8.736;2022-08-11T10:13:25;3.45;;;2.05;;
34521;SDS011;25561;48.888;8.736;2022-08-11T10:16:54;8.15;;;2.05;;
34521;SDS011;25561;48.888;8.736;2022-08-11T10:19:56;5.85;;;2.47;;
34521;SDS011;25561;48.888;8.736;2022-08-11T10:23:06;8.77;;;2.65;;
34521;SDS011;25561;48.888;8.736;2022-08-11T10:26:30;12.27;;;2.73;;
34521;SDS011;25561;48.888;8.736;2022-08-11T10:29:54;6.28;;;2.60;;
34521;SDS011;25561;48.888;8.736;2022-08-11T10:33:17;8.52;;;2.92;;
34521;SDS011;25561;48.888;8.736;2022-08-11T10:36:59;7.57;;;2.55;;
34521;SDS011;25561;48.888;8.736;2022-08-11T10:40:03;13.45;;;2.35;;
34521;SDS011;25561;48.888;8.736;2022-08-11T10:43:07;6.57;;;2.20;;
34521;SDS011;25561;48.888;8.736;2022-08-11T10:46:14;4.88;;;2.50;;
34521;SDS011;25561;48.888;8.736;2022-08-11T10:49:36;6.80;;;2.60;;
34521;SDS011;25561;48.888;8.736;2022-08-11T10:52:38;4.75;;;2.00;;
34521;SDS011;25561;48.888;8.736;2022-08-11T10:56:01;4.63;;;2.47;;
34521;SDS011;25561;48.888;8.736;2022-08-11T10:59:25;3.03;;;2.15;;
34521;SDS011;25561;48.888;8.736;2022-08-11T11:02:28;6.60;;;2.00;;
34521;SDS011;25561;48.888;8.736;2022-08-11T11:05:30;5.78;;;2.35;;
34521;SDS011;25561;48.888;8.736;2022-08-11T11:08:35;5.60;;;2.30;;
34521;SDS011;25561;48.888;8.736;2022-08-11T11:12:19;3.85;;;1.95;;
34521;SDS011;25561;48.888;8.736;2022-08-11T11:15:47;4.95;;;2.40;;
34521;SDS011;25561;48.888;8.736;2022-08-11T11:19:09;5.13;;;2.45;;
34521;SDS011;25561;48.888;8.736;2022-08-11T11:22:13;3.10;;;1.73;;
34521;SDS011;25561;48.888;8.736;2022-08-11T11:25:45;3.50;;;2.08;;
34521;SDS011;25561;48.888;8.736;2022-08-11T11:29:28;3.80;;;2.42;;
34521;SDS011;25561;48.888;8.736;2022-08-11T11:32:43;5.75;;;2.03;;
34521;SDS011;25561;48.888;8.736;2022-08-11T11:36:11;4.03;;;2.75;;
34521;SDS011;25561;48.888;8.736;2022-08-11T11:39:23;3.35;;;2.13;;
34521;SDS011;25561;48.888;8.736;2022-08-11T11:42:27;7.32;;;2.47;;
34521;SDS011;25561;48.888;8.736;2022-08-11T11:45:30;9.38;;;2.20;;
34521;SDS011;25561;48.888;8.736;2022-08-11T11:48:32;5.63;;;2.15;;
34521;SDS011;25561;48.888;8.736;2022-08-11T11:51:35;5.05;;;2.30;;
34521;SDS011;25561;48.888;8.736;2022-08-11T11:54:38;4.32;;;2.20;;
34521;SDS011;25561;48.888;8.736;2022-08-11T11:57:41;5.45;;;2.35;;
34521;SDS011;25561;48.888;8.736;2022-08-11T12:01:03;5.93;;;2.30;;
34521;SDS011;25561;48.888;8.736;2022-08-11T12:04:24;9.60;;;2.63;;
34521;SDS011;25561;48.888;8.736;2022-08-11T12:07:27;7.00;;;2.03;;
34521;SDS011;25561;48.888;8.736;2022-08-11T12:11:08;10.07;;;2.00;;
34521;SDS011;25561;48.888;8.736;2022-08-11T12:14:32;3.83;;;2.03;;
34521;SDS011;25561;48.888;8.736;2022-08-11T12:17:34;4.13;;;2.00;;
34521;SDS011;25561;48.888;8.736;2022-08-11T12:20:37;3.15;;;1.90;;
34521;SDS011;25561;48.888;8.736;2022-08-11T12:23:39;3.28;;;2.05;;
34521;SDS011;25561;48.888;8.736;2022-08-11T12:27:04;2.90;;;1.90;;
34521;SDS011;25561;48.888;8.736;2022-08-11T12:30:25;5.50;;;1.73;;
34521;SDS011;25561;48.888;8.736;2022-08-11T12:33:28;4.97;;;2.38;;
34521;SDS011;25561;48.888;8.736;2022-08-11T12:36:32;7.13;;;2.28;;
34521;SDS011;25561;48.888;8.736;2022-08-11T12:39:38;8.82;;;1.92;;
34521;SDS011;25561;48.888;8.736;2022-08-11T12:43:26;3.70;;;2.10;;
34521;SDS011;25561;48.888;8.736;2022-08-11T12:46:58;7.55;;;2.08;;
34521;SDS011;25561;48.888;8.736;2022-08-11T12:50:01;9.37;;;1.93;;
34521;SDS011;25561;48.888;8.736;2022-08-11T12:53:25;8.10;;;2.42;;
34521;SDS011;25561;48.888;8.736;2022-08-11T12:56:46;5.25;;;1.73;;
34521;SDS011;25561;48.888;8.736;2022-08-11T13:00:25;7.13;;;2.10;;
34521;SDS011;25561;48.888;8.736;2022-08-11T13:03:48;4.60;;;2.25;;
34521;SDS011;25561;48.888;8.736;2022-08-11T13:07:10;5.80;;;2.05;;
34521;SDS011;25561;48.888;8.736;2022-08-11T13:10:13;7.97;;;2.03;;
34521;SDS011;25561;48.888;8.736;2022-08-11T13:13:39;2.72;;;2.05;;
34521;SDS011;25561;48.888;8.736;2022-08-11T13:16:56;3.88;;;1.70;;
34521;SDS011;25561;48.888;8.736;2022-08-11T13:20:19;3.53;;;1.83;;
34521;SDS011;25561;48.888;8.736;2022-08-11T13:23:23;3.83;;;2.15;;
34521;SDS011;25561;48.888;8.736;2022-08-11T13:26:26;6.57;;;2.22;;
34521;SDS011;25561;48.888;8.736;2022-08-11T13:29:48;4.85;;;2.10;;
34521;SDS011;25561;48.888;8.736;2022-08-11T13:33:11;4.47;;;2.10;;
34521;SDS011;25561;48.888;8.736;2022-08-11T13:36:19;2.58;;;1.70;;
34521;SDS011;25561;48.888;8.736;2022-08-11T13:39:27;4.90;;;1.90;;
34521;SDS011;25561;48.888;8.736;2022-08-11T13:42:30;6.38;;;2.03;;
34521;SDS011;25561;48.888;8.736;2022-08-11T13:45:32;3.30;;;2.05;;
34521;SDS011;25561;48.888;8.736;2022-08-11T13:48:35;4.63;;;2.03;;
34521;SDS011;25561;48.888;8.736;2022-08-11T13:51:38;5.38;;;2.00;;
34521;SDS011;25561;48.888;8.736;2022-08-11T13:54:41;2.80;;;1.85;;
34521;SDS011;25561;48.888;8.736;2022-08-11T13:57:43;3.17;;;1.80;;
34521;SDS011;25561;48.888;8.736;2022-08-11T14:01:05;4.68;;;2.17;;
34521;SDS011;25561;48.888;8.736;2022-08-11T14:04:33;3.75;;;1.80;;
34521;SDS011;25561;48.888;8.736;2022-08-11T14:07:51;3.47;;;1.80;;
34521;SDS011;25561;48.888;8.736;2022-08-11T14:11:00;7.32;;;2.08;;
34521;SDS011;25561;48.888;8.736;2022-08-11T14:14:44;7.05;;;1.95;;
34521;SDS011;25561;48.888;8.736;2022-08-11T14:17:51;2.13;;;1.52;;
34521;SDS011;25561;48.888;8.736;2022-08-11T14:20:58;3.33;;;1.88;;
34521;SDS011;25561;48.888;8.736;2022-08-11T14:24:21;12.13;;;1.70;;
34521;SDS011;25561;48.888;8.736;2022-08-11T14:27:24;2.67;;;1.60;;
34521;SDS011;25561;48.888;8.736;2022-08-11T14:30:51;3.03;;;1.95;;
34521;SDS011;25561;48.888;8.736;2022-08-11T14:34:03;5.40;;;1.90;;
34521;SDS011;25561;48.888;8.736;2022-08-11T14:37:11;6.18;;;1.90;;
34521;SDS011;25561;48.888;8.736;2022-08-11T14:40:15;7.75;;;2.40;;
34521;SDS011;25561;48.888;8.736;2022-08-11T14:43:37;4.18;;;1.52;;
34521;SDS011;25561;48.888;8.736;2022-08-11T14:47:14;3.28;;;1.60;;
34521;SDS011;25561;48.888;8.736;2022-08-11T14:50:25;3.55;;;1.75;;
34521;SDS011;25561;48.888;8.736;2022-08-11T14:53:28;2.85;;;1.80;;
34521;SDS011;25561;48.888;8.736;2022-08-11T14:56:31;2.42;;;1.92;;
34521;SDS011;25561;48.888;8.736;2022-08-11T14:59:37;10.63;;;2.15;;
34521;SDS011;25561;48.888;8.736;2022-08-11T15:02:39;3.10;;;1.70;;
34521;SDS011;25561;48.888;8.736;2022-08-11T15:06:02;3.08;;;1.73;;
34521;SDS011;25561;48.888;8.736;2022-08-11T15:09:05;6.63;;;1.88;;
34521;SDS011;25561;48.888;8.736;2022-08-11T15:12:09;3.35;;;1.65;;
34521;SDS011;25561;48.888;8.736;2022-08-11T15:15:33;2.13;;;1.70;;
34521;SDS011;25561;48.888;8.736;2022-08-11T15:18:56;7.60;;;2.08;;
34521;SDS011;25561;48.888;8.736;2022-08-11T15:21:58;3.40;;;2.45;;
34521;SDS011;25561;48.888;8.736;2022-08-11T15:25:22;3.65;;;1.90;;
34521;SDS011;25561;48.888;8.736;2022-08-11T15:28:26;7.07;;;1.92;;
34521;SDS011;25561;48.888;8.736;2022-08-11T15:31:49;10.10;;;2.10;;
34521;SDS011;25561;48.888;8.736;2022-08-11T15:35:11;3.70;;;1.60;;
34521;SDS011;25561;48.888;8.736;2022-08-11T15:38:43;5.50;;;2.15;;
34521;SDS011;25561;48.888;8.736;2022-08-11T15:41:58;6.68;;;1.98;;
34521;SDS011;25561;48.888;8.736;2022-08-11T15:45:31;2.60;;;1.65;;
34521;SDS011;25561;48.888;8.736;2022-08-11T15:48:55;7.30;;;1.67;;
34521;SDS011;25561;48.888;8.736;2022-08-11T15:52:05;4.88;;;2.17;;
34521;SDS011;25561;48.888;8.736;2022-08-11T15:55:10;3.13;;;1.83;;
34521;SDS011;25561;48.888;8.736;2022-08-11T15:58:12;5.60;;;1.70;;
